sensor_id;sensor_type;location;lat;lon;timestamp;P1;durP1;ratioP1;P2;durP2;ratioP2
62582;SDS011;48641;51.676;5.808;2023-01-16T00:01:23;5.07;;;2.00;;
62582;SDS011;48641;51.676;5.808;2023-01-16T00:03:50;4.35;;;1.70;;
62582;SDS011;48641;51.676;5.808;2023-01-16T00:06:16;4.97;;;1.73;;
62582;SDS011;48641;51.676;5.808;2023-01-16T00:08:42;5.40;;;1.60;;
62582;SDS011;48641;51.676;5.808;2023-01-16T00:11:11;4.57;;;1.50;;
62582;SDS011;48641;51.676;5.808;2023-01-16T00:13:37;3.53;;;1.40;;
62582;SDS011;48641;51.676;5.808;2023-01-16T02:53:02;1.40;;;0.60;;
62582;SDS011;48641;51.676;5.808;2023-01-16T02:55:48;1.27;;;0.68;;
62582;SDS011;48641;51.676;5.808;2023-01-16T02:58:20;2.35;;;0.73;;
62582;SDS011;48641;51.676;5.808;2023-01-16T03:00:54;2.88;;;0.70;;
62582;SDS011;48641;51.676;5.808;2023-01-16T03:06:16;1.35;;;0.60;;
62582;SDS011;48641;51.676;5.808;2023-01-16T03:15:00;2.28;;;0.70;;
62582;SDS011;48641;51.676;5.808;2023-01-16T03:23:13;2.53;;;0.60;;
62582;SDS011;48641;51.676;5.808;2023-01-16T03:25:48;1.47;;;0.60;;
62582;SDS011;48641;51.676;5.808;2023-01-16T03:28:27;1.45;;;0.63;;
62582;SDS011;48641;51.676;5.808;2023-01-16T03:30:58;1.73;;;0.73;;
62582;SDS011;48641;51.676;5.808;2023-01-16T03:36:56;2.15;;;0.55;;
62582;SDS011;48641;51.676;5.808;2023-01-16T03:39:41;1.65;;;0.57;;
62582;SDS011;48641;51.676;5.808;2023-01-16T03:42:14;1.88;;;0.55;;
62582;SDS011;48641;51.676;5.808;2023-01-16T03:44:53;1.38;;;0.68;;
62582;SDS011;48641;51.676;5.808;2023-01-16T03:47:29;1.42;;;0.60;;
62582;SDS011;48641;51.676;5.808;2023-01-16T03:50:02;2.72;;;0.60;;
62582;SDS011;48641;51.676;5.808;2023-01-16T03:52:35;2.10;;;0.70;;
62582;SDS011;48641;51.676;5.808;2023-01-16T03:55:12;2.38;;;0.55;;
62582;SDS011;48641;51.676;5.808;2023-01-16T03:57:49;1.83;;;0.60;;
62582;SDS011;48641;51.676;5.808;2023-01-16T04:00:28;1.55;;;0.50;;
62582;SDS011;48641;51.676;5.808;2023-01-16T04:10:15;2.30;;;0.70;;
62582;SDS011;48641;51.676;5.808;2023-01-16T04:13:03;0.90;;;0.50;;
62582;SDS011;48641;51.676;5.808;2023-01-16T04:15:47;2.00;;;0.73;;
62582;SDS011;48641;51.676;5.808;2023-01-16T04:20:43;1.48;;;0.60;;
62582;SDS011;48641;51.676;5.808;2023-01-16T04:23:11;0.77;;;0.45;;
62582;SDS011;48641;51.676;5.808;2023-01-16T04:25:38;1.52;;;0.40;;
62582;SDS011;48641;51.676;5.808;2023-01-16T04:28:04;1.50;;;0.60;;
62582;SDS011;48641;51.676;5.808;2023-01-16T04:30:29;1.40;;;0.50;;
62582;SDS011;48641;51.676;5.808;2023-01-16T04:32:55;1.77;;;0.55;;
62582;SDS011;48641;51.676;5.808;2023-01-16T04:35:24;2.97;;;0.63;;
62582;SDS011;48641;51.676;5.808;2023-01-16T04:37:57;1.00;;;0.38;;
62582;SDS011;48641;51.676;5.808;2023-01-16T05:02:39;2.22;;;0.50;;
62582;SDS011;48641;51.676;5.808;2023-01-16T05:05:05;1.20;;;0.50;;
62582;SDS011;48641;51.676;5.808;2023-01-16T05:10:03;1.75;;;0.50;;
62582;SDS011;48641;51.676;5.808;2023-01-16T05:12:29;2.15;;;0.52;;
62582;SDS011;48641;51.676;5.808;2023-01-16T05:15:00;1.33;;;0.50;;
62582;SDS011;48641;51.676;5.808;2023-01-16T05:17:26;1.75;;;0.50;;
62582;SDS011;48641;51.676;5.808;2023-01-16T05:19:54;0.40;;;0.30;;
62582;SDS011;48641;51.676;5.808;2023-01-16T05:22:29;1.33;;;0.60;;
62582;SDS011;48641;51.676;5.808;2023-01-16T05:24:55;0.93;;;0.40;;
62582;SDS011;48641;51.676;5.808;2023-01-16T05:27:24;1.30;;;0.40;;
62582;SDS011;48641;51.676;5.808;2023-01-16T05:29:50;2.00;;;0.55;;
62582;SDS011;48641;51.676;5.808;2023-01-16T05:32:16;1.27;;;0.40;;
62582;SDS011;48641;51.676;5.808;2023-01-16T06:52:40;2.53;;;0.80;;
62582;SDS011;48641;51.676;5.808;2023-01-16T06:55:06;1.77;;;0.65;;
62582;SDS011;48641;51.676;5.808;2023-01-16T06:57:33;2.38;;;0.65;;
62582;SDS011;48641;51.676;5.808;2023-01-16T07:00:00;3.15;;;0.70;;
62582;SDS011;48641;51.676;5.808;2023-01-16T07:02:28;2.25;;;0.57;;
62582;SDS011;48641;51.676;5.808;2023-01-16T07:04:54;2.65;;;0.60;;
62582;SDS011;48641;51.676;5.808;2023-01-16T07:07:19;2.28;;;0.70;;
62582;SDS011;48641;51.676;5.808;2023-01-16T07:09:45;1.85;;;0.65;;
62582;SDS011;48641;51.676;5.808;2023-01-16T07:12:10;1.35;;;0.57;;
62582;SDS011;48641;51.676;5.808;2023-01-16T07:14:36;2.80;;;0.73;;
62582;SDS011;48641;51.676;5.808;2023-01-16T07:17:20;2.22;;;0.70;;
62582;SDS011;48641;51.676;5.808;2023-01-16T07:20:04;2.40;;;0.65;;
62582;SDS011;48641;51.676;5.808;2023-01-16T07:22:52;3.47;;;0.95;;
62582;SDS011;48641;51.676;5.808;2023-01-16T07:27:46;2.05;;;0.70;;
62582;SDS011;48641;51.676;5.808;2023-01-16T07:30:15;1.88;;;0.60;;
62582;SDS011;48641;51.676;5.808;2023-01-16T07:32:41;2.55;;;0.88;;
62582;SDS011;48641;51.676;5.808;2023-01-16T07:35:08;6.07;;;1.13;;
62582;SDS011;48641;51.676;5.808;2023-01-16T07:37:33;2.95;;;0.80;;
62582;SDS011;48641;51.676;5.808;2023-01-16T07:39:59;4.30;;;1.00;;
62582;SDS011;48641;51.676;5.808;2023-01-16T07:42:25;5.00;;;1.20;;
62582;SDS011;48641;51.676;5.808;2023-01-16T07:44:50;3.33;;;1.00;;
62582;SDS011;48641;51.676;5.808;2023-01-16T07:47:16;3.33;;;1.00;;
62582;SDS011;48641;51.676;5.808;2023-01-16T07:49:41;3.25;;;0.90;;
62582;SDS011;48641;51.676;5.808;2023-01-16T07:52:07;4.07;;;1.02;;
62582;SDS011;48641;51.676;5.808;2023-01-16T07:54:32;3.05;;;0.90;;
62582;SDS011;48641;51.676;5.808;2023-01-16T07:57:01;2.05;;;0.90;;
62582;SDS011;48641;51.676;5.808;2023-01-16T07:59:26;2.92;;;0.90;;
62582;SDS011;48641;51.676;5.808;2023-01-16T08:01:52;4.10;;;0.80;;
62582;SDS011;48641;51.676;5.808;2023-01-16T08:04:17;3.92;;;0.80;;
62582;SDS011;48641;51.676;5.808;2023-01-16T08:06:43;3.15;;;1.00;;
62582;SDS011;48641;51.676;5.808;2023-01-16T08:09:10;3.10;;;0.80;;
62582;SDS011;48641;51.676;5.808;2023-01-16T08:11:36;3.30;;;0.85;;
62582;SDS011;48641;51.676;5.808;2023-01-16T08:14:04;2.00;;;0.90;;
62582;SDS011;48641;51.676;5.808;2023-01-16T08:16:31;5.10;;;0.95;;
62582;SDS011;48641;51.676;5.808;2023-01-16T08:18:57;5.28;;;0.90;;
62582;SDS011;48641;51.676;5.808;2023-01-16T08:21:23;2.67;;;0.70;;
62582;SDS011;48641;51.676;5.808;2023-01-16T08:23:49;4.05;;;0.80;;
62582;SDS011;48641;51.676;5.808;2023-01-16T08:26:14;1.40;;;0.57;;
62582;SDS011;48641;51.676;5.808;2023-01-16T08:28:40;2.72;;;0.70;;
62582;SDS011;48641;51.676;5.808;2023-01-16T08:31:06;1.60;;;0.70;;
62582;SDS011;48641;51.676;5.808;2023-01-16T08:33:40;2.72;;;0.80;;
62582;SDS011;48641;51.676;5.808;2023-01-16T08:36:08;2.30;;;0.70;;
62582;SDS011;48641;51.676;5.808;2023-01-16T08:38:35;3.83;;;0.80;;
62582;SDS011;48641;51.676;5.808;2023-01-16T08:41:01;2.20;;;0.60;;
62582;SDS011;48641;51.676;5.808;2023-01-16T08:43:26;2.80;;;0.70;;
62582;SDS011;48641;51.676;5.808;2023-01-16T08:46:18;1.52;;;0.60;;
62582;SDS011;48641;51.676;5.808;2023-01-16T08:49:08;1.92;;;0.80;;
62582;SDS011;48641;51.676;5.808;2023-01-16T08:51:56;2.33;;;0.60;;
62582;SDS011;48641;51.676;5.808;2023-01-16T08:54:23;1.80;;;0.60;;
62582;SDS011;48641;51.676;5.808;2023-01-16T08:56:48;1.77;;;0.80;;
62582;SDS011;48641;51.676;5.808;2023-01-16T08:59:14;3.47;;;0.85;;
62582;SDS011;48641;51.676;5.808;2023-01-16T09:01:40;2.83;;;0.80;;
62582;SDS011;48641;51.676;5.808;2023-01-16T09:04:06;1.35;;;0.73;;
62582;SDS011;48641;51.676;5.808;2023-01-16T09:06:33;1.75;;;0.65;;
62582;SDS011;48641;51.676;5.808;2023-01-16T09:09:02;2.72;;;0.77;;
62582;SDS011;48641;51.676;5.808;2023-01-16T09:11:30;2.53;;;0.80;;
62582;SDS011;48641;51.676;5.808;2023-01-16T09:14:14;2.15;;;0.70;;
62582;SDS011;48641;51.676;5.808;2023-01-16T09:16:40;2.60;;;0.60;;
62582;SDS011;48641;51.676;5.808;2023-01-16T09:19:05;1.73;;;0.60;;
62582;SDS011;48641;51.676;5.808;2023-01-16T09:21:31;2.70;;;0.70;;
62582;SDS011;48641;51.676;5.808;2023-01-16T09:23:56;1.30;;;0.50;;
62582;SDS011;48641;51.676;5.808;2023-01-16T09:26:22;3.35;;;0.77;;
62582;SDS011;48641;51.676;5.808;2023-01-16T09:28:47;2.80;;;0.60;;
62582;SDS011;48641;51.676;5.808;2023-01-16T09:31:13;1.95;;;0.70;;
62582;SDS011;48641;51.676;5.808;2023-01-16T09:33:39;1.30;;;0.47;;
62582;SDS011;48641;51.676;5.808;2023-01-16T09:36:06;2.72;;;0.68;;
62582;SDS011;48641;51.676;5.808;2023-01-16T09:38:32;0.85;;;0.50;;
62582;SDS011;48641;51.676;5.808;2023-01-16T09:40:58;1.77;;;0.65;;
62582;SDS011;48641;51.676;5.808;2023-01-16T09:43:37;1.23;;;0.43;;
62582;SDS011;48641;51.676;5.808;2023-01-16T09:46:22;2.13;;;0.60;;
62582;SDS011;48641;51.676;5.808;2023-01-16T09:48:52;0.77;;;0.50;;
62582;SDS011;48641;51.676;5.808;2023-01-16T09:51:33;1.45;;;0.65;;
62582;SDS011;48641;51.676;5.808;2023-01-16T09:54:12;2.20;;;0.80;;
62582;SDS011;48641;51.676;5.808;2023-01-16T09:57:03;14.73;;;1.20;;
62582;SDS011;48641;51.676;5.808;2023-01-16T09:59:55;8.60;;;1.10;;
62582;SDS011;48641;51.676;5.808;2023-01-16T10:02:31;7.22;;;0.82;;
62582;SDS011;48641;51.676;5.808;2023-01-16T10:04:58;6.32;;;1.00;;
62582;SDS011;48641;51.676;5.808;2023-01-16T10:18:49;3.72;;;0.73;;
62582;SDS011;48641;51.676;5.808;2023-01-16T10:30:00;0.68;;;0.40;;
62582;SDS011;48641;51.676;5.808;2023-01-16T10:33:03;2.28;;;0.40;;
62582;SDS011;48641;51.676;5.808;2023-01-16T10:35:39;1.95;;;0.50;;
62582;SDS011;48641;51.676;5.808;2023-01-16T10:44:30;3.97;;;0.80;;
62582;SDS011;48641;51.676;5.808;2023-01-16T10:47:26;3.22;;;0.60;;
62582;SDS011;48641;51.676;5.808;2023-01-16T10:50:13;3.55;;;0.70;;
62582;SDS011;48641;51.676;5.808;2023-01-16T10:52:39;8.27;;;0.80;;
62582;SDS011;48641;51.676;5.808;2023-01-16T10:55:06;3.45;;;0.70;;
62582;SDS011;48641;51.676;5.808;2023-01-16T10:57:33;3.00;;;0.60;;
62582;SDS011;48641;51.676;5.808;2023-01-16T11:00:06;1.10;;;0.50;;
62582;SDS011;48641;51.676;5.808;2023-01-16T11:05:24;10.02;;;0.80;;
62582;SDS011;48641;51.676;5.808;2023-01-16T11:07:55;55.83;;;4.45;;
62582;SDS011;48641;51.676;5.808;2023-01-16T11:10:27;104.88;;;6.68;;
62582;SDS011;48641;51.676;5.808;2023-01-16T11:12:52;68.30;;;8.05;;
62582;SDS011;48641;51.676;5.808;2023-01-16T11:15:36;101.00;;;8.02;;
62582;SDS011;48641;51.676;5.808;2023-01-16T11:18:22;112.80;;;9.05;;
62582;SDS011;48641;51.676;5.808;2023-01-16T11:21:22;72.10;;;6.60;;
62582;SDS011;48641;51.676;5.808;2023-01-16T11:23:48;226.95;;;17.45;;
62582;SDS011;48641;51.676;5.808;2023-01-16T11:26:14;188.35;;;15.25;;
62582;SDS011;48641;51.676;5.808;2023-01-16T11:28:41;163.65;;;12.70;;
62582;SDS011;48641;51.676;5.808;2023-01-16T11:31:13;144.27;;;11.27;;
62582;SDS011;48641;51.676;5.808;2023-01-16T11:33:51;147.23;;;12.38;;
62582;SDS011;48641;51.676;5.808;2023-01-16T11:36:22;156.20;;;13.60;;
62582;SDS011;48641;51.676;5.808;2023-01-16T11:38:50;222.65;;;18.60;;
62582;SDS011;48641;51.676;5.808;2023-01-16T11:41:18;170.32;;;13.48;;
62582;SDS011;48641;51.676;5.808;2023-01-16T11:46:58;140.93;;;13.48;;
62582;SDS011;48641;51.676;5.808;2023-01-16T11:49:26;111.00;;;11.57;;
62582;SDS011;48641;51.676;5.808;2023-01-16T11:52:00;111.05;;;10.73;;
62582;SDS011;48641;51.676;5.808;2023-01-16T11:54:30;88.25;;;9.60;;
62582;SDS011;48641;51.676;5.808;2023-01-16T11:59:51;78.05;;;8.02;;
62582;SDS011;48641;51.676;5.808;2023-01-16T12:13:34;46.67;;;5.70;;
62582;SDS011;48641;51.676;5.808;2023-01-16T12:24:41;29.35;;;4.13;;
62582;SDS011;48641;51.676;5.808;2023-01-16T12:30:25;35.22;;;3.95;;
62582;SDS011;48641;51.676;5.808;2023-01-16T12:38:55;19.45;;;3.13;;
62582;SDS011;48641;51.676;5.808;2023-01-16T12:41:38;24.50;;;3.53;;
62582;SDS011;48641;51.676;5.808;2023-01-16T12:52:26;18.42;;;2.85;;
62582;SDS011;48641;51.676;5.808;2023-01-16T12:55:41;11.15;;;1.73;;
62582;SDS011;48641;51.676;5.808;2023-01-16T12:58:27;20.65;;;2.28;;
62582;SDS011;48641;51.676;5.808;2023-01-16T13:06:34;11.55;;;1.90;;
62582;SDS011;48641;51.676;5.808;2023-01-16T13:09:08;20.23;;;2.20;;
62582;SDS011;48641;51.676;5.808;2023-01-16T13:15:12;123.22;;;13.25;;
62582;SDS011;48641;51.676;5.808;2023-01-16T13:18:01;106.50;;;11.57;;
62582;SDS011;48641;51.676;5.808;2023-01-16T13:20:33;525.20;;;56.38;;
62582;SDS011;48641;51.676;5.808;2023-01-16T13:23:01;735.75;;;84.55;;
62582;SDS011;48641;51.676;5.808;2023-01-16T13:25:37;766.10;;;94.03;;
62582;SDS011;48641;51.676;5.808;2023-01-16T13:30:39;759.05;;;94.15;;
62582;SDS011;48641;51.676;5.808;2023-01-16T13:33:12;776.88;;;99.78;;
62582;SDS011;48641;51.676;5.808;2023-01-16T13:35:45;792.63;;;107.82;;
62582;SDS011;48641;51.676;5.808;2023-01-16T13:41:13;721.97;;;98.55;;
62582;SDS011;48641;51.676;5.808;2023-01-16T13:44:07;764.47;;;108.38;;
62582;SDS011;48641;51.676;5.808;2023-01-16T13:47:03;626.88;;;85.03;;
62582;SDS011;48641;51.676;5.808;2023-01-16T13:49:32;649.58;;;85.88;;
62582;SDS011;48641;51.676;5.808;2023-01-16T13:51:57;603.60;;;85.47;;
62582;SDS011;48641;51.676;5.808;2023-01-16T13:54:29;566.03;;;73.82;;
62582;SDS011;48641;51.676;5.808;2023-01-16T14:41:03;519.13;;;56.53;;
62582;SDS011;48641;51.676;5.808;2023-01-16T15:01:27;262.77;;;34.53;;
62582;SDS011;48641;51.676;5.808;2023-01-16T15:04:16;250.95;;;30.60;;
62582;SDS011;48641;51.676;5.808;2023-01-16T15:06:48;236.63;;;29.38;;
62582;SDS011;48641;51.676;5.808;2023-01-16T15:09:19;213.77;;;31.08;;
62582;SDS011;48641;51.676;5.808;2023-01-16T15:11:50;219.35;;;28.10;;
62582;SDS011;48641;51.676;5.808;2023-01-16T15:14:20;197.45;;;27.27;;
62582;SDS011;48641;51.676;5.808;2023-01-16T15:22:58;159.02;;;21.17;;
62582;SDS011;48641;51.676;5.808;2023-01-16T15:31:04;160.35;;;23.42;;
62582;SDS011;48641;51.676;5.808;2023-01-16T15:33:35;113.18;;;17.75;;
62582;SDS011;48641;51.676;5.808;2023-01-16T15:39:09;123.82;;;17.23;;
62582;SDS011;48641;51.676;5.808;2023-01-16T15:41:43;113.35;;;18.48;;
62582;SDS011;48641;51.676;5.808;2023-01-16T15:44:33;115.20;;;18.25;;
62582;SDS011;48641;51.676;5.808;2023-01-16T15:47:43;105.55;;;17.30;;
62582;SDS011;48641;51.676;5.808;2023-01-16T15:50:20;98.95;;;16.77;;
62582;SDS011;48641;51.676;5.808;2023-01-16T15:52:57;116.28;;;16.45;;
62582;SDS011;48641;51.676;5.808;2023-01-16T15:55:25;101.05;;;15.23;;
62582;SDS011;48641;51.676;5.808;2023-01-16T15:57:56;87.75;;;15.13;;
62582;SDS011;48641;51.676;5.808;2023-01-16T16:05:39;85.15;;;16.45;;
62582;SDS011;48641;51.676;5.808;2023-01-16T16:08:13;81.75;;;16.52;;
62582;SDS011;48641;51.676;5.808;2023-01-16T16:10:42;89.43;;;16.10;;
62582;SDS011;48641;51.676;5.808;2023-01-16T16:13:27;76.60;;;15.73;;
62582;SDS011;48641;51.676;5.808;2023-01-16T16:15:55;82.82;;;15.57;;
62582;SDS011;48641;51.676;5.808;2023-01-16T16:18:39;73.38;;;14.48;;
62582;SDS011;48641;51.676;5.808;2023-01-16T16:21:15;68.93;;;14.60;;
62582;SDS011;48641;51.676;5.808;2023-01-16T16:23:42;74.53;;;17.88;;
62582;SDS011;48641;51.676;5.808;2023-01-16T16:26:11;69.88;;;17.10;;
62582;SDS011;48641;51.676;5.808;2023-01-16T16:28:39;63.97;;;16.17;;
62582;SDS011;48641;51.676;5.808;2023-01-16T16:34:03;78.13;;;17.85;;
62582;SDS011;48641;51.676;5.808;2023-01-16T16:36:35;69.18;;;15.63;;
62582;SDS011;48641;51.676;5.808;2023-01-16T16:39:29;60.22;;;15.18;;
62582;SDS011;48641;51.676;5.808;2023-01-16T16:42:24;58.63;;;16.27;;
62582;SDS011;48641;51.676;5.808;2023-01-16T16:47:40;63.90;;;16.60;;
62582;SDS011;48641;51.676;5.808;2023-01-16T16:53:09;66.40;;;16.00;;
62582;SDS011;48641;51.676;5.808;2023-01-16T16:55:46;65.63;;;17.73;;
62582;SDS011;48641;51.676;5.808;2023-01-16T16:58:21;63.13;;;16.20;;
62582;SDS011;48641;51.676;5.808;2023-01-16T17:00:49;60.40;;;16.38;;
62582;SDS011;48641;51.676;5.808;2023-01-16T17:03:21;60.55;;;16.83;;
62582;SDS011;48641;51.676;5.808;2023-01-16T17:05:49;62.50;;;16.65;;
62582;SDS011;48641;51.676;5.808;2023-01-16T17:08:22;63.85;;;16.13;;
62582;SDS011;48641;51.676;5.808;2023-01-16T17:10:49;55.63;;;16.13;;
62582;SDS011;48641;51.676;5.808;2023-01-16T17:13:16;54.75;;;15.75;;
62582;SDS011;48641;51.676;5.808;2023-01-16T17:15:43;53.50;;;14.90;;
62582;SDS011;48641;51.676;5.808;2023-01-16T17:18:10;50.95;;;14.70;;
62582;SDS011;48641;51.676;5.808;2023-01-16T17:20:36;49.33;;;15.35;;
62582;SDS011;48641;51.676;5.808;2023-01-16T17:23:04;54.55;;;13.63;;
62582;SDS011;48641;51.676;5.808;2023-01-16T17:25:42;57.70;;;15.25;;
62582;SDS011;48641;51.676;5.808;2023-01-16T17:28:09;54.92;;;15.13;;
62582;SDS011;48641;51.676;5.808;2023-01-16T17:30:35;46.25;;;14.00;;
62582;SDS011;48641;51.676;5.808;2023-01-16T17:33:02;56.03;;;15.18;;
62582;SDS011;48641;51.676;5.808;2023-01-16T17:35:35;49.53;;;14.05;;
62582;SDS011;48641;51.676;5.808;2023-01-16T17:38:12;51.50;;;14.75;;
62582;SDS011;48641;51.676;5.808;2023-01-16T17:40:40;52.88;;;13.80;;
62582;SDS011;48641;51.676;5.808;2023-01-16T17:43:05;48.53;;;14.57;;
62582;SDS011;48641;51.676;5.808;2023-01-16T17:45:54;42.88;;;13.63;;
62582;SDS011;48641;51.676;5.808;2023-01-16T17:48:28;40.72;;;12.73;;
62582;SDS011;48641;51.676;5.808;2023-01-16T17:50:55;44.70;;;13.23;;
62582;SDS011;48641;51.676;5.808;2023-01-16T17:53:24;39.22;;;13.13;;
62582;SDS011;48641;51.676;5.808;2023-01-16T17:55:51;49.35;;;13.50;;
62582;SDS011;48641;51.676;5.808;2023-01-16T17:58:22;41.20;;;12.93;;
62582;SDS011;48641;51.676;5.808;2023-01-16T18:00:57;43.88;;;13.00;;
62582;SDS011;48641;51.676;5.808;2023-01-16T18:03:24;40.92;;;14.00;;
62582;SDS011;48641;51.676;5.808;2023-01-16T18:05:53;39.60;;;12.65;;
62582;SDS011;48641;51.676;5.808;2023-01-16T18:08:23;39.88;;;12.70;;
62582;SDS011;48641;51.676;5.808;2023-01-16T18:10:48;39.20;;;12.60;;
62582;SDS011;48641;51.676;5.808;2023-01-16T18:13:14;46.80;;;15.68;;
62582;SDS011;48641;51.676;5.808;2023-01-16T18:15:58;47.50;;;16.98;;
62582;SDS011;48641;51.676;5.808;2023-01-16T18:21:13;42.15;;;15.25;;
62582;SDS011;48641;51.676;5.808;2023-01-16T18:23:58;42.47;;;13.95;;
62582;SDS011;48641;51.676;5.808;2023-01-16T18:26:24;36.75;;;13.23;;
62582;SDS011;48641;51.676;5.808;2023-01-16T18:28:50;53.90;;;20.35;;
62582;SDS011;48641;51.676;5.808;2023-01-16T18:31:17;43.42;;;16.95;;
62582;SDS011;48641;51.676;5.808;2023-01-16T18:33:43;42.95;;;16.58;;
62582;SDS011;48641;51.676;5.808;2023-01-16T18:36:11;39.53;;;15.43;;
62582;SDS011;48641;51.676;5.808;2023-01-16T18:38:38;42.70;;;15.00;;
62582;SDS011;48641;51.676;5.808;2023-01-16T18:41:22;35.08;;;13.40;;
62582;SDS011;48641;51.676;5.808;2023-01-16T18:44:06;38.30;;;14.65;;
62582;SDS011;48641;51.676;5.808;2023-01-16T18:46:55;32.60;;;12.65;;
62582;SDS011;48641;51.676;5.808;2023-01-16T18:49:39;35.70;;;13.55;;
62582;SDS011;48641;51.676;5.808;2023-01-16T18:52:23;34.42;;;11.70;;
62582;SDS011;48641;51.676;5.808;2023-01-16T18:55:12;35.33;;;15.93;;
62582;SDS011;48641;51.676;5.808;2023-01-16T18:57:57;39.83;;;15.30;;
62582;SDS011;48641;51.676;5.808;2023-01-16T19:00:44;36.60;;;14.25;;
62582;SDS011;48641;51.676;5.808;2023-01-16T19:03:28;32.13;;;13.30;;
62582;SDS011;48641;51.676;5.808;2023-01-16T19:05:54;35.47;;;14.10;;
62582;SDS011;48641;51.676;5.808;2023-01-16T19:08:21;31.65;;;12.48;;
62582;SDS011;48641;51.676;5.808;2023-01-16T19:10:48;34.50;;;13.20;;
62582;SDS011;48641;51.676;5.808;2023-01-16T19:13:16;30.55;;;12.43;;
62582;SDS011;48641;51.676;5.808;2023-01-16T19:15:42;31.30;;;13.40;;
62582;SDS011;48641;51.676;5.808;2023-01-16T19:18:26;29.55;;;12.10;;
62582;SDS011;48641;51.676;5.808;2023-01-16T19:20:52;28.73;;;12.10;;
62582;SDS011;48641;51.676;5.808;2023-01-16T19:23:17;26.67;;;11.23;;
62582;SDS011;48641;51.676;5.808;2023-01-16T19:25:43;30.60;;;11.88;;
62582;SDS011;48641;51.676;5.808;2023-01-16T19:28:09;28.50;;;12.63;;
62582;SDS011;48641;51.676;5.808;2023-01-16T19:30:34;28.77;;;11.57;;
62582;SDS011;48641;51.676;5.808;2023-01-16T19:33:00;30.45;;;12.75;;
62582;SDS011;48641;51.676;5.808;2023-01-16T19:35:26;24.27;;;9.90;;
62582;SDS011;48641;51.676;5.808;2023-01-16T19:37:52;31.95;;;11.27;;
62582;SDS011;48641;51.676;5.808;2023-01-16T19:40:17;24.17;;;10.65;;
62582;SDS011;48641;51.676;5.808;2023-01-16T19:42:43;28.00;;;10.82;;
62582;SDS011;48641;51.676;5.808;2023-01-16T19:45:28;21.85;;;9.88;;
62582;SDS011;48641;51.676;5.808;2023-01-16T19:48:12;21.63;;;9.20;;
62582;SDS011;48641;51.676;5.808;2023-01-16T19:50:37;26.00;;;9.85;;
62582;SDS011;48641;51.676;5.808;2023-01-16T19:53:03;22.02;;;9.38;;
62582;SDS011;48641;51.676;5.808;2023-01-16T19:55:31;23.45;;;9.00;;
62582;SDS011;48641;51.676;5.808;2023-01-16T19:57:57;29.40;;;9.98;;
62582;SDS011;48641;51.676;5.808;2023-01-16T20:00:23;25.20;;;9.23;;
62582;SDS011;48641;51.676;5.808;2023-01-16T20:02:48;19.73;;;8.02;;
62582;SDS011;48641;51.676;5.808;2023-01-16T20:05:14;22.75;;;9.15;;
62582;SDS011;48641;51.676;5.808;2023-01-16T20:07:39;19.60;;;8.80;;
62582;SDS011;48641;51.676;5.808;2023-01-16T20:10:05;19.52;;;7.63;;
62582;SDS011;48641;51.676;5.808;2023-01-16T20:12:31;25.30;;;8.57;;
62582;SDS011;48641;51.676;5.808;2023-01-16T20:15:00;19.73;;;8.50;;
62582;SDS011;48641;51.676;5.808;2023-01-16T20:17:27;20.95;;;7.80;;
62582;SDS011;48641;51.676;5.808;2023-01-16T20:19:54;19.77;;;7.68;;
62582;SDS011;48641;51.676;5.808;2023-01-16T20:22:22;18.37;;;8.03;;
62582;SDS011;48641;51.676;5.808;2023-01-16T20:24:48;16.70;;;7.25;;
62582;SDS011;48641;51.676;5.808;2023-01-16T20:27:17;20.13;;;7.55;;
62582;SDS011;48641;51.676;5.808;2023-01-16T20:29:45;19.77;;;6.47;;
62582;SDS011;48641;51.676;5.808;2023-01-16T20:32:12;16.45;;;7.07;;
62582;SDS011;48641;51.676;5.808;2023-01-16T20:34:37;17.73;;;6.70;;
62582;SDS011;48641;51.676;5.808;2023-01-16T20:37:03;17.70;;;6.45;;
62582;SDS011;48641;51.676;5.808;2023-01-16T20:39:29;18.02;;;7.15;;
62582;SDS011;48641;51.676;5.808;2023-01-16T20:41:55;18.42;;;7.07;;
62582;SDS011;48641;51.676;5.808;2023-01-16T20:44:40;13.95;;;5.53;;
62582;SDS011;48641;51.676;5.808;2023-01-16T20:47:24;18.33;;;7.15;;
62582;SDS011;48641;51.676;5.808;2023-01-16T20:52:18;14.93;;;5.32;;
62582;SDS011;48641;51.676;5.808;2023-01-16T20:54:44;13.02;;;5.88;;
62582;SDS011;48641;51.676;5.808;2023-01-16T20:57:11;14.65;;;6.82;;
62582;SDS011;48641;51.676;5.808;2023-01-16T20:59:37;16.90;;;6.72;;
62582;SDS011;48641;51.676;5.808;2023-01-16T21:02:03;17.02;;;6.00;;
62582;SDS011;48641;51.676;5.808;2023-01-16T21:04:31;17.25;;;6.35;;
62582;SDS011;48641;51.676;5.808;2023-01-16T21:06:58;14.70;;;6.00;;
62582;SDS011;48641;51.676;5.808;2023-01-16T21:09:24;16.08;;;6.25;;
62582;SDS011;48641;51.676;5.808;2023-01-16T21:11:50;14.85;;;5.75;;
62582;SDS011;48641;51.676;5.808;2023-01-16T21:14:34;15.10;;;5.50;;
62582;SDS011;48641;51.676;5.808;2023-01-16T21:17:00;14.07;;;5.70;;
62582;SDS011;48641;51.676;5.808;2023-01-16T21:19:45;15.57;;;5.50;;
62582;SDS011;48641;51.676;5.808;2023-01-16T21:22:31;16.90;;;6.40;;
62582;SDS011;48641;51.676;5.808;2023-01-16T21:24:57;12.93;;;5.50;;
62582;SDS011;48641;51.676;5.808;2023-01-16T21:27:27;12.57;;;5.03;;
62582;SDS011;48641;51.676;5.808;2023-01-16T21:29:55;12.35;;;4.80;;
62582;SDS011;48641;51.676;5.808;2023-01-16T21:32:25;15.57;;;5.40;;
62582;SDS011;48641;51.676;5.808;2023-01-16T21:34:52;12.02;;;4.85;;
62582;SDS011;48641;51.676;5.808;2023-01-16T21:37:23;14.68;;;4.82;;
62582;SDS011;48641;51.676;5.808;2023-01-16T21:39:50;11.20;;;4.40;;
62582;SDS011;48641;51.676;5.808;2023-01-16T21:42:17;11.40;;;4.82;;
62582;SDS011;48641;51.676;5.808;2023-01-16T21:45:01;12.57;;;4.53;;
62582;SDS011;48641;51.676;5.808;2023-01-16T21:47:47;10.95;;;4.50;;
62582;SDS011;48641;51.676;5.808;2023-01-16T21:50:13;11.48;;;4.35;;
62582;SDS011;48641;51.676;5.808;2023-01-16T21:52:38;12.10;;;4.47;;
62582;SDS011;48641;51.676;5.808;2023-01-16T21:55:04;9.02;;;3.60;;
62582;SDS011;48641;51.676;5.808;2023-01-16T21:57:31;13.90;;;4.82;;
62582;SDS011;48641;51.676;5.808;2023-01-16T21:59:57;12.70;;;4.40;;
62582;SDS011;48641;51.676;5.808;2023-01-16T22:02:22;10.05;;;4.05;;
62582;SDS011;48641;51.676;5.808;2023-01-16T22:04:48;11.05;;;3.92;;
62582;SDS011;48641;51.676;5.808;2023-01-16T22:07:14;10.18;;;4.07;;
62582;SDS011;48641;51.676;5.808;2023-01-16T22:09:40;11.20;;;3.75;;
62582;SDS011;48641;51.676;5.808;2023-01-16T22:12:06;11.43;;;3.55;;
62582;SDS011;48641;51.676;5.808;2023-01-16T22:14:50;10.07;;;3.25;;
62582;SDS011;48641;51.676;5.808;2023-01-16T22:17:34;10.30;;;3.78;;
62582;SDS011;48641;51.676;5.808;2023-01-16T22:20:15;9.05;;;3.05;;
62582;SDS011;48641;51.676;5.808;2023-01-16T22:22:54;9.35;;;3.22;;
62582;SDS011;48641;51.676;5.808;2023-01-16T22:25:21;8.93;;;3.50;;
62582;SDS011;48641;51.676;5.808;2023-01-16T22:27:54;11.13;;;3.90;;
62582;SDS011;48641;51.676;5.808;2023-01-16T22:30:20;35.08;;;21.40;;
62582;SDS011;48641;51.676;5.808;2023-01-16T22:32:48;13.88;;;6.88;;
62582;SDS011;48641;51.676;5.808;2023-01-16T22:35:14;9.98;;;4.68;;
62582;SDS011;48641;51.676;5.808;2023-01-16T22:37:40;11.25;;;5.00;;
62582;SDS011;48641;51.676;5.808;2023-01-16T22:40:06;13.13;;;5.43;;
62582;SDS011;48641;51.676;5.808;2023-01-16T22:42:32;12.35;;;5.25;;
62582;SDS011;48641;51.676;5.808;2023-01-16T22:44:58;11.55;;;5.35;;
62582;SDS011;48641;51.676;5.808;2023-01-16T22:47:42;11.10;;;4.90;;
62582;SDS011;48641;51.676;5.808;2023-01-16T22:50:08;10.55;;;4.28;;
62582;SDS011;48641;51.676;5.808;2023-01-16T22:52:34;11.18;;;4.82;;